createdAt,value
2023-04-10T00:01:50.820Z,68.13
2023-04-10T00:06:54.289Z,68.33
2023-04-10T00:11:57.904Z,68.29
2023-04-10T00:17:01.618Z,68.39
2023-04-10T00:22:06.272Z,68.54
2023-04-10T00:27:09.580Z,68.45
2023-04-10T00:32:13.342Z,68.49
2023-04-10T00:37:17.836Z,68.55
2023-04-10T00:42:21.262Z,69.15
2023-04-10T00:47:25.642Z,69.11
2023-04-10T00:52:29.000Z,69.75
2023-04-10T00:57:33.702Z,69.77
2023-04-10T01:02:37.263Z,69.86
2023-04-10T01:07:52.961Z,70.00
2023-04-10T01:13:06.033Z,70.17
2023-04-10T01:18:15.976Z,70.23
2023-04-10T01:24:19.999Z,70.34
2023-04-10T01:29:29.776Z,70.71
2023-04-10T01:34:44.212Z,70.76
2023-04-10T01:39:49.897Z,70.73
2023-04-10T01:44:54.745Z,71.04
2023-04-10T01:49:59.087Z,70.82
2023-04-10T01:55:03.214Z,70.83
2023-04-10T02:00:07.587Z,70.90
2023-04-10T02:05:11.277Z,70.78
2023-04-10T02:10:22.371Z,71.01
2023-04-10T02:15:28.651Z,71.01
2023-04-10T02:20:32.683Z,70.83
2023-04-10T02:25:36.492Z,71.06
2023-04-10T02:30:39.803Z,71.31
2023-04-10T02:35:43.760Z,71.61
2023-04-10T02:40:47.241Z,71.49
2023-04-10T02:45:50.653Z,71.38
2023-04-10T02:51:00.223Z,71.28
2023-04-10T02:56:04.092Z,71.57
2023-04-10T03:01:07.523Z,71.64
2023-04-10T03:06:11.380Z,71.53
2023-04-10T03:11:14.785Z,71.55
2023-04-10T03:16:18.929Z,71.68
2023-04-10T03:21:22.430Z,71.74
2023-04-10T03:26:25.948Z,71.75
2023-04-10T03:31:29.851Z,72.02
2023-04-10T03:36:33.290Z,72.11
2023-04-10T03:41:36.817Z,72.26
2023-04-10T03:46:40.796Z,72.44
2023-04-10T03:51:44.348Z,72.62
2023-04-10T03:56:47.756Z,72.62
2023-04-10T04:01:51.416Z,72.94
2023-04-10T04:06:55.000Z,72.89
2023-04-10T04:11:58.405Z,72.92
2023-04-10T04:17:02.019Z,72.67
2023-04-10T04:22:05.953Z,72.54
2023-04-10T04:27:09.361Z,72.52
2023-04-10T04:32:12.962Z,72.71
2023-04-10T04:37:16.497Z,72.62
2023-04-10T04:42:19.913Z,72.96
2023-04-10T04:47:24.777Z,73.04
2023-04-10T04:52:28.380Z,73.14
2023-04-10T04:57:31.993Z,72.88
2023-04-10T05:02:35.916Z,73.01
2023-04-10T05:07:39.634Z,73.03
2023-04-10T05:12:43.557Z,73.01
2023-04-10T05:17:51.277Z,72.66
2023-04-10T05:22:54.993Z,72.83
2023-04-10T05:27:58.404Z,73.05
2023-04-10T05:33:01.982Z,73.25
2023-04-10T05:38:05.745Z,73.30
2023-04-10T05:43:09.986Z,73.09
2023-04-10T05:48:13.288Z,73.37
2023-04-10T05:53:21.716Z,73.53
2023-04-10T05:58:25.340Z,73.31
2023-04-10T06:03:31.063Z,73.44
2023-04-10T06:08:37.797Z,73.55
2023-04-10T06:13:41.411Z,73.63
2023-04-10T06:18:44.722Z,73.27
2023-04-10T06:23:48.349Z,73.23
2023-04-10T06:28:51.929Z,73.10
2023-04-10T06:33:55.988Z,73.07
2023-04-10T06:38:59.316Z,73.11
2023-04-10T06:44:03.587Z,73.55
2023-04-10T06:49:07.265Z,73.39
2023-04-10T06:54:10.873Z,72.96
2023-04-10T06:59:14.295Z,72.92
2023-04-10T07:04:17.827Z,73.09
2023-04-10T07:09:21.520Z,73.09
2023-04-10T07:14:25.049Z,72.60
2023-04-10T07:19:28.655Z,72.43
2023-04-10T07:24:32.932Z,72.27
2023-04-10T07:29:36.310Z,72.38
2023-04-10T07:34:39.823Z,71.96
2023-04-10T07:39:43.160Z,71.95
2023-04-10T07:44:46.533Z,71.46
2023-04-10T07:49:50.061Z,71.38
2023-04-10T07:54:53.568Z,71.06
2023-04-10T07:59:57.596Z,71.22
2023-04-10T08:05:01.296Z,70.83
2023-04-10T08:10:37.910Z,70.80
2023-04-10T08:15:41.634Z,70.21
2023-04-10T08:20:44.935Z,70.03
2023-04-10T08:25:48.449Z,69.25
2023-04-10T08:30:53.925Z,68.97
2023-04-10T08:35:57.387Z,68.83
2023-04-10T08:41:01.045Z,67.99
2023-04-10T08:46:04.976Z,67.46
2023-04-10T08:51:19.450Z,67.12
2023-04-10T08:56:24.928Z,66.26
2023-04-10T09:01:28.441Z,65.61
2023-04-10T09:06:32.451Z,65.21
2023-04-10T09:11:55.626Z,65.32
2023-04-10T09:17:19.550Z,65.08
2023-04-10T09:22:34.005Z,64.79
2023-04-10T09:27:40.572Z,64.47
2023-04-10T09:32:46.878Z,63.65
2023-04-10T09:37:50.580Z,63.68
2023-04-10T09:42:56.339Z,63.92
2023-04-10T09:48:08.397Z,63.18
2023-04-10T09:53:16.904Z,62.72
2023-04-10T09:58:21.514Z,62.47
2023-04-10T10:03:25.953Z,62.33
2023-04-10T10:08:33.585Z,61.91
2023-04-10T10:13:57.484Z,61.01
2023-04-10T10:19:07.237Z,60.30
2023-04-10T10:24:12.712Z,60.35
2023-04-10T10:29:18.844Z,59.47
2023-04-10T10:34:22.395Z,60.45
2023-04-10T10:39:34.514Z,60.30
2023-04-10T10:44:51.443Z,59.44
2023-04-10T10:50:02.196Z,59.04
2023-04-10T10:55:36.986Z,58.48
2023-04-10T11:00:52.437Z,58.09
2023-04-10T11:06:04.135Z,57.38
2023-04-10T11:11:13.342Z,56.98
2023-04-10T11:16:16.918Z,57.00
2023-04-10T11:21:22.309Z,56.70
2023-04-10T11:26:43.865Z,56.11
2023-04-10T11:32:06.223Z,56.11
2023-04-10T11:37:09.611Z,54.62
2023-04-10T11:42:13.130Z,53.88
2023-04-10T11:47:16.851Z,54.00
2023-04-10T11:52:26.710Z,53.38
2023-04-10T11:57:36.501Z,52.77
2023-04-10T12:02:52.741Z,51.62
2023-04-10T12:07:56.404Z,50.03
2023-04-10T12:13:01.272Z,49.34
2023-04-10T12:18:04.765Z,50.04
2023-04-10T12:23:08.280Z,50.15
2023-04-10T12:28:18.870Z,50.03
2023-04-10T12:33:26.087Z,49.86
2023-04-10T12:38:42.386Z,49.13
2023-04-10T12:43:46.005Z,48.78
2023-04-10T12:48:49.314Z,49.08
2023-04-10T12:53:53.761Z,49.21
2023-04-10T12:59:09.255Z,48.00
2023-04-10T13:04:12.858Z,46.72
2023-04-10T13:09:17.919Z,46.71
2023-04-10T13:14:21.328Z,46.03
2023-04-10T13:19:24.640Z,45.78
2023-04-10T13:24:28.155Z,45.90
2023-04-10T13:29:31.667Z,45.69
2023-04-10T13:34:35.695Z,45.49
2023-04-10T13:39:39.331Z,45.61
2023-04-10T13:44:42.836Z,45.07
2023-04-10T13:49:46.491Z,45.35
2023-04-10T13:54:49.765Z,44.68
2023-04-10T13:59:53.899Z,44.33
2023-04-10T14:04:57.310Z,44.14
2023-04-10T14:10:01.748Z,43.46
2023-04-10T14:15:06.112Z,43.66
2023-04-10T14:20:11.676Z,43.77
2023-04-10T14:25:16.282Z,43.04
2023-04-10T14:30:19.794Z,42.70
2023-04-10T14:35:23.432Z,41.02
2023-04-10T14:40:26.736Z,38.56
2023-04-10T14:45:30.342Z,36.57
2023-04-10T14:50:34.296Z,35.60
2023-04-10T14:55:37.689Z,32.61
2023-04-10T15:00:41.297Z,30.89
2023-04-10T15:05:44.923Z,27.85
2023-04-10T15:10:50.686Z,26.64
2023-04-10T15:15:54.509Z,24.81
2023-04-10T15:20:57.824Z,22.46
2023-04-10T15:26:01.274Z,22.05
2023-04-10T15:31:05.307Z,20.85
2023-04-10T15:36:09.463Z,19.54
2023-04-10T15:41:13.898Z,18.51
2023-04-10T15:46:19.454Z,17.20
2023-04-10T15:51:22.799Z,16.50
2023-04-10T15:56:26.215Z,16.57
2023-04-10T16:01:29.682Z,15.88
2023-04-10T16:06:33.604Z,15.26
2023-04-10T16:11:37.070Z,15.51
2023-04-10T16:16:40.582Z,15.00
2023-04-10T16:21:43.998Z,14.52
2023-04-10T16:26:47.498Z,15.24
2023-04-10T16:31:51.330Z,15.50
2023-04-10T16:36:54.854Z,15.92
2023-04-10T16:41:58.580Z,16.44
2023-04-10T16:47:02.035Z,16.74
2023-04-10T16:52:06.626Z,17.53
2023-04-10T16:57:10.457Z,17.84
2023-04-10T17:02:13.917Z,18.31
2023-04-10T17:07:17.892Z,18.71
2023-04-10T17:12:21.416Z,19.19
2023-04-10T17:17:25.034Z,19.77
2023-04-10T17:22:28.547Z,20.33
2023-04-10T17:27:32.158Z,21.05
2023-04-10T17:32:35.827Z,21.79
2023-04-10T17:37:39.260Z,22.59
2023-04-10T17:42:42.716Z,23.39
2023-04-10T17:47:46.231Z,24.03
2023-04-10T17:52:49.737Z,24.57
2023-04-10T17:57:53.559Z,25.46
2023-04-10T18:03:01.219Z,25.97
2023-04-10T18:08:04.892Z,26.89
2023-04-10T18:13:08.304Z,27.20
2023-04-10T18:18:11.768Z,27.78
2023-04-10T18:23:15.353Z,28.56
2023-04-10T18:28:20.441Z,30.32
2023-04-10T18:33:25.335Z,31.14
2023-04-10T18:38:28.859Z,31.52
2023-04-10T18:43:32.238Z,31.86
2023-04-10T18:48:41.976Z,32.02
2023-04-10T18:53:45.548Z,32.61
2023-04-10T18:58:50.203Z,32.87
2023-04-10T19:03:55.418Z,33.37
2023-04-10T19:08:59.687Z,34.49
2023-04-10T19:14:03.410Z,35.02
2023-04-10T19:19:09.470Z,35.69
2023-04-10T19:24:13.287Z,36.45
2023-04-10T19:29:16.700Z,37.03
2023-04-10T19:34:20.219Z,37.75
2023-04-10T19:39:24.244Z,38.19
2023-04-10T19:44:27.654Z,38.81
2023-04-10T19:49:37.039Z,38.37
2023-04-10T19:54:40.415Z,38.58
2023-04-10T19:59:43.729Z,39.30
2023-04-10T20:04:48.686Z,39.27
2023-04-10T20:09:52.369Z,38.99
2023-04-10T20:14:56.144Z,39.49
2023-04-10T20:19:59.438Z,39.29
2023-04-10T20:25:02.868Z,40.36
2023-04-10T20:30:07.183Z,40.53
2023-04-10T20:35:10.485Z,40.96
2023-04-10T20:40:13.912Z,41.16
2023-04-10T20:45:17.327Z,41.52
2023-04-10T20:50:21.034Z,41.61
2023-04-10T20:55:24.349Z,42.32
2023-04-10T21:00:31.042Z,42.49
2023-04-10T21:05:34.550Z,42.68
2023-04-10T21:10:44.228Z,42.93
2023-04-10T21:15:49.707Z,43.62
2023-04-10T21:20:53.000Z,43.67
2023-04-10T21:25:56.606Z,43.88
2023-04-10T21:31:00.143Z,44.23
2023-04-10T21:36:05.259Z,44.51
2023-04-10T21:41:08.606Z,45.02
2023-04-10T21:46:12.117Z,45.48
2023-04-10T21:51:15.620Z,45.70
2023-04-10T21:56:19.128Z,45.86
2023-04-10T22:01:22.610Z,45.66
2023-04-10T22:06:26.987Z,45.97
2023-04-10T22:11:30.398Z,45.90
2023-04-10T22:16:33.936Z,45.70
2023-04-10T22:21:37.637Z,46.19
2023-04-10T22:26:42.413Z,46.36
2023-04-10T22:31:45.897Z,47.04
2023-04-10T22:36:51.982Z,47.10
2023-04-10T22:41:55.491Z,47.20
2023-04-10T22:46:59.109Z,47.89
2023-04-10T22:52:02.412Z,47.85
2023-04-10T22:57:06.333Z,47.82
2023-04-10T23:02:09.890Z,48.15
2023-04-10T23:07:13.474Z,48.29
2023-04-10T23:12:16.883Z,48.38
2023-04-10T23:17:21.227Z,49.09
2023-04-10T23:22:24.530Z,48.94
2023-04-10T23:27:27.949Z,49.54
2023-04-10T23:32:31.621Z,49.01
2023-04-10T23:37:35.588Z,49.04
2023-04-10T23:42:39.010Z,49.45
2023-04-10T23:47:42.461Z,49.21
2023-04-10T23:52:50.238Z,49.67
2023-04-10T23:57:53.757Z,49.81
